sensor_id;sensor_type;location;lat;lon;timestamp;temperature;humidity
16801;DHT22;8518;53.236;10.384;2023-09-18T00:02:07;19.20;99.90
16801;DHT22;8518;53.236;10.384;2023-09-18T00:04:33;19.30;99.90
16801;DHT22;8518;53.236;10.384;2023-09-18T00:10:22;19.20;99.90
16801;DHT22;8518;53.236;10.384;2023-09-18T00:12:48;19.20;99.90
16801;DHT22;8518;53.236;10.384;2023-09-18T00:15:14;19.20;99.90
16801;DHT22;8518;53.236;10.384;2023-09-18T00:21:02;19.10;99.90
16801;DHT22;8518;53.236;10.384;2023-09-18T00:23:28;19.10;99.90
16801;DHT22;8518;53.236;10.384;2023-09-18T00:25:53;19.00;99.90
16801;DHT22;8518;53.236;10.384;2023-09-18T00:28:19;19.10;99.90
16801;DHT22;8518;53.236;10.384;2023-09-18T00:30:50;19.10;99.90
16801;DHT22;8518;53.236;10.384;2023-09-18T00:33:16;19.20;99.90
16801;DHT22;8518;53.236;10.384;2023-09-18T00:35:51;18.90;99.90
16801;DHT22;8518;53.236;10.384;2023-09-18T00:38:17;18.90;99.90
16801;DHT22;8518;53.236;10.384;2023-09-18T00:40:44;18.90;99.90
16801;DHT22;8518;53.236;10.384;2023-09-18T00:43:10;18.80;99.90
16801;DHT22;8518;53.236;10.384;2023-09-18T00:45:42;18.80;99.90
16801;DHT22;8518;53.236;10.384;2023-09-18T00:48:11;18.80;99.90
16801;DHT22;8518;53.236;10.384;2023-09-18T00:50:37;18.80;99.90
16801;DHT22;8518;53.236;10.384;2023-09-18T00:53:04;18.80;99.90
16801;DHT22;8518;53.236;10.384;2023-09-18T00:55:32;18.70;99.90
16801;DHT22;8518;53.236;10.384;2023-09-18T01:01:20;18.80;99.90
16801;DHT22;8518;53.236;10.384;2023-09-18T01:03:50;18.70;99.90
16801;DHT22;8518;53.236;10.384;2023-09-18T01:09:39;18.60;99.90
16801;DHT22;8518;53.236;10.384;2023-09-18T01:15:32;18.60;99.90
16801;DHT22;8518;53.236;10.384;2023-09-18T01:21:21;19.30;99.90
16801;DHT22;8518;53.236;10.384;2023-09-18T01:27:11;18.50;99.90
16801;DHT22;8518;53.236;10.384;2023-09-18T01:29:38;18.50;99.90
16801;DHT22;8518;53.236;10.384;2023-09-18T01:32:05;18.50;99.90
16801;DHT22;8518;53.236;10.384;2023-09-18T01:34:34;18.60;99.90
16801;DHT22;8518;53.236;10.384;2023-09-18T01:40:24;18.30;99.90
16801;DHT22;8518;53.236;10.384;2023-09-18T01:42:51;18.20;99.90
16801;DHT22;8518;53.236;10.384;2023-09-18T01:45:22;18.10;99.90
16801;DHT22;8518;53.236;10.384;2023-09-18T01:51:13;18.30;99.90
16801;DHT22;8518;53.236;10.384;2023-09-18T01:53:39;18.10;99.90
16801;DHT22;8518;53.236;10.384;2023-09-18T01:56:05;18.20;99.90
16801;DHT22;8518;53.236;10.384;2023-09-18T01:58:30;18.20;99.90
16801;DHT22;8518;53.236;10.384;2023-09-18T02:00:56;18.20;99.90
16801;DHT22;8518;53.236;10.384;2023-09-18T02:03:25;18.30;99.90
16801;DHT22;8518;53.236;10.384;2023-09-18T02:05:51;17.70;99.90
16801;DHT22;8518;53.236;10.384;2023-09-18T02:08:16;18.00;99.90
16801;DHT22;8518;53.236;10.384;2023-09-18T02:10:42;18.00;99.90
16801;DHT22;8518;53.236;10.384;2023-09-18T02:13:07;18.00;99.90
16801;DHT22;8518;53.236;10.384;2023-09-18T02:15:35;18.00;99.90
16801;DHT22;8518;53.236;10.384;2023-09-18T02:21:23;17.70;99.90
16801;DHT22;8518;53.236;10.384;2023-09-18T02:27:11;17.90;99.90
16801;DHT22;8518;53.236;10.384;2023-09-18T02:29:37;17.80;99.90
16801;DHT22;8518;53.236;10.384;2023-09-18T02:32:03;17.80;99.90
16801;DHT22;8518;53.236;10.384;2023-09-18T02:34:29;17.80;99.90
16801;DHT22;8518;53.236;10.384;2023-09-18T02:40:19;17.70;99.90
16801;DHT22;8518;53.236;10.384;2023-09-18T02:42:45;17.70;99.90
16801;DHT22;8518;53.236;10.384;2023-09-18T02:45:12;18.40;99.90
16801;DHT22;8518;53.236;10.384;2023-09-18T02:51:00;17.80;99.90
16801;DHT22;8518;53.236;10.384;2023-09-18T02:53:32;17.80;99.90
16801;DHT22;8518;53.236;10.384;2023-09-18T02:55:59;18.00;99.90
16801;DHT22;8518;53.236;10.384;2023-09-18T03:00:56;17.60;99.90
16801;DHT22;8518;53.236;10.384;2023-09-18T03:03:23;17.80;99.90
16801;DHT22;8518;53.236;10.384;2023-09-18T03:05:51;17.60;99.90
16801;DHT22;8518;53.236;10.384;2023-09-18T03:08:17;17.70;99.90
16801;DHT22;8518;53.236;10.384;2023-09-18T03:10:45;17.00;99.90
16801;DHT22;8518;53.236;10.384;2023-09-18T03:13:13;17.70;99.90
16801;DHT22;8518;53.236;10.384;2023-09-18T03:15:45;17.60;99.90
16801;DHT22;8518;53.236;10.384;2023-09-18T03:18:12;17.60;99.90
16801;DHT22;8518;53.236;10.384;2023-09-18T03:20:38;17.60;99.90
16801;DHT22;8518;53.236;10.384;2023-09-18T03:23:04;17.80;99.90
16801;DHT22;8518;53.236;10.384;2023-09-18T03:25:30;17.90;99.90
16801;DHT22;8518;53.236;10.384;2023-09-18T03:31:17;17.50;99.90
16801;DHT22;8518;53.236;10.384;2023-09-18T03:33:43;17.50;99.90
16801;DHT22;8518;53.236;10.384;2023-09-18T03:36:09;17.50;99.90
16801;DHT22;8518;53.236;10.384;2023-09-18T03:38:37;17.70;99.90
16801;DHT22;8518;53.236;10.384;2023-09-18T03:41:02;16.90;99.90
16801;DHT22;8518;53.236;10.384;2023-09-18T03:43:28;18.10;99.90
16801;DHT22;8518;53.236;10.384;2023-09-18T03:45:54;17.40;99.90
16801;DHT22;8518;53.236;10.384;2023-09-18T03:48:19;17.40;99.90
16801;DHT22;8518;53.236;10.384;2023-09-18T03:50:47;17.30;99.90
16801;DHT22;8518;53.236;10.384;2023-09-18T03:53:15;17.80;99.90
16801;DHT22;8518;53.236;10.384;2023-09-18T03:55:42;17.30;99.90
16801;DHT22;8518;53.236;10.384;2023-09-18T04:01:30;17.30;99.90
16801;DHT22;8518;53.236;10.384;2023-09-18T04:03:56;17.20;99.90
16801;DHT22;8518;53.236;10.384;2023-09-18T04:09:44;17.20;99.90
16801;DHT22;8518;53.236;10.384;2023-09-18T04:12:09;17.20;99.90
16801;DHT22;8518;53.236;10.384;2023-09-18T04:14:35;17.20;99.90
16801;DHT22;8518;53.236;10.384;2023-09-18T04:20:23;17.10;99.90
16801;DHT22;8518;53.236;10.384;2023-09-18T04:23:19;17.10;99.90
16801;DHT22;8518;53.236;10.384;2023-09-18T04:25:45;17.10;99.90
16801;DHT22;8518;53.236;10.384;2023-09-18T04:28:12;17.10;99.90
16801;DHT22;8518;53.236;10.384;2023-09-18T04:30:38;17.10;99.90
16801;DHT22;8518;53.236;10.384;2023-09-18T04:33:04;17.10;99.90
16801;DHT22;8518;53.236;10.384;2023-09-18T04:35:29;17.10;99.90
16801;DHT22;8518;53.236;10.384;2023-09-18T04:41:19;17.10;99.90
16801;DHT22;8518;53.236;10.384;2023-09-18T04:43:44;17.10;99.90
16801;DHT22;8518;53.236;10.384;2023-09-18T04:49:32;17.10;99.90
16801;DHT22;8518;53.236;10.384;2023-09-18T04:51:58;17.10;99.90
16801;DHT22;8518;53.236;10.384;2023-09-18T04:57:46;17.10;99.90
16801;DHT22;8518;53.236;10.384;2023-09-18T05:00:12;17.10;99.90
16801;DHT22;8518;53.236;10.384;2023-09-18T05:02:39;17.10;99.90
16801;DHT22;8518;53.236;10.384;2023-09-18T05:05:06;17.10;99.90
16801;DHT22;8518;53.236;10.384;2023-09-18T05:10:56;17.20;99.90
16801;DHT22;8518;53.236;10.384;2023-09-18T05:13:23;17.20;99.90
16801;DHT22;8518;53.236;10.384;2023-09-18T05:15:48;17.20;99.90
16801;DHT22;8518;53.236;10.384;2023-09-18T05:18:14;17.30;99.90
16801;DHT22;8518;53.236;10.384;2023-09-18T05:20:40;17.30;99.90
16801;DHT22;8518;53.236;10.384;2023-09-18T05:23:05;17.30;99.90
16801;DHT22;8518;53.236;10.384;2023-09-18T05:25:36;17.30;99.90
16801;DHT22;8518;53.236;10.384;2023-09-18T05:31:27;17.40;99.90
16801;DHT22;8518;53.236;10.384;2023-09-18T05:33:53;17.40;99.90
16801;DHT22;8518;53.236;10.384;2023-09-18T05:39:40;17.20;99.90
16801;DHT22;8518;53.236;10.384;2023-09-18T05:42:06;17.60;99.90
16801;DHT22;8518;53.236;10.384;2023-09-18T05:44:32;17.70;99.90
16801;DHT22;8518;53.236;10.384;2023-09-18T05:50:20;17.80;99.90
16801;DHT22;8518;53.236;10.384;2023-09-18T05:56:08;18.10;99.90
16801;DHT22;8518;53.236;10.384;2023-09-18T05:58:35;18.40;99.90
16801;DHT22;8518;53.236;10.384;2023-09-18T06:01:01;18.50;99.90
16801;DHT22;8518;53.236;10.384;2023-09-18T06:03:28;18.60;99.90
16801;DHT22;8518;53.236;10.384;2023-09-18T06:05:57;19.00;99.90
16801;DHT22;8518;53.236;10.384;2023-09-18T06:08:22;19.00;99.90
16801;DHT22;8518;53.236;10.384;2023-09-18T06:10:51;19.20;99.90
16801;DHT22;8518;53.236;10.384;2023-09-18T06:13:17;19.50;99.90
16801;DHT22;8518;53.236;10.384;2023-09-18T06:15:42;19.70;99.90
16801;DHT22;8518;53.236;10.384;2023-09-18T06:18:08;19.90;99.90
16801;DHT22;8518;53.236;10.384;2023-09-18T06:20:34;20.00;99.90
16801;DHT22;8518;53.236;10.384;2023-09-18T06:22:59;20.20;99.90
16801;DHT22;8518;53.236;10.384;2023-09-18T06:25:25;20.30;99.90
16801;DHT22;8518;53.236;10.384;2023-09-18T06:31:19;20.50;99.90
16801;DHT22;8518;53.236;10.384;2023-09-18T06:33:45;20.60;99.90
16801;DHT22;8518;53.236;10.384;2023-09-18T06:39:33;20.60;99.90
16801;DHT22;8518;53.236;10.384;2023-09-18T06:41:59;20.70;99.90
16801;DHT22;8518;53.236;10.384;2023-09-18T06:44:24;20.70;99.90
16801;DHT22;8518;53.236;10.384;2023-09-18T06:50:12;20.70;99.90
16801;DHT22;8518;53.236;10.384;2023-09-18T06:52:38;20.70;99.90
16801;DHT22;8518;53.236;10.384;2023-09-18T06:55:03;20.50;99.90
16801;DHT22;8518;53.236;10.384;2023-09-18T07:00:52;20.30;99.90
16801;DHT22;8518;53.236;10.384;2023-09-18T07:03:18;20.30;99.90
16801;DHT22;8518;53.236;10.384;2023-09-18T07:05:43;20.40;99.90
16801;DHT22;8518;53.236;10.384;2023-09-18T07:08:11;20.40;99.90
16801;DHT22;8518;53.236;10.384;2023-09-18T07:10:38;20.30;99.90
16801;DHT22;8518;53.236;10.384;2023-09-18T07:13:05;20.40;99.90
16801;DHT22;8518;53.236;10.384;2023-09-18T07:15:31;20.40;99.90
16801;DHT22;8518;53.236;10.384;2023-09-18T07:21:19;20.30;99.90
16801;DHT22;8518;53.236;10.384;2023-09-18T07:23:46;20.40;99.90
16801;DHT22;8518;53.236;10.384;2023-09-18T07:29:35;20.80;99.90
16801;DHT22;8518;53.236;10.384;2023-09-18T07:35:23;21.60;99.90
16801;DHT22;8518;53.236;10.384;2023-09-18T07:41:11;22.20;99.90
16801;DHT22;8518;53.236;10.384;2023-09-18T07:43:37;22.30;99.90
16801;DHT22;8518;53.236;10.384;2023-09-18T07:46:04;22.40;99.90
16801;DHT22;8518;53.236;10.384;2023-09-18T07:48:30;22.70;99.90
16801;DHT22;8518;53.236;10.384;2023-09-18T07:50:55;23.00;99.90
16801;DHT22;8518;53.236;10.384;2023-09-18T07:53:21;22.40;99.90
16801;DHT22;8518;53.236;10.384;2023-09-18T07:55:48;23.30;99.90
16801;DHT22;8518;53.236;10.384;2023-09-18T07:58:14;23.10;99.90
16801;DHT22;8518;53.236;10.384;2023-09-18T08:00:40;22.80;99.90
16801;DHT22;8518;53.236;10.384;2023-09-18T08:03:05;22.50;99.90
16801;DHT22;8518;53.236;10.384;2023-09-18T08:05:31;22.20;99.90
16801;DHT22;8518;53.236;10.384;2023-09-18T08:11:19;21.90;99.90
16801;DHT22;8518;53.236;10.384;2023-09-18T08:13:44;21.70;99.90
16801;DHT22;8518;53.236;10.384;2023-09-18T08:19:33;21.60;99.90
16801;DHT22;8518;53.236;10.384;2023-09-18T08:25:21;21.40;99.90
16801;DHT22;8518;53.236;10.384;2023-09-18T08:31:09;21.40;99.90
16801;DHT22;8518;53.236;10.384;2023-09-18T08:36:58;21.30;99.90
16801;DHT22;8518;53.236;10.384;2023-09-18T08:39:25;21.40;99.90
16801;DHT22;8518;53.236;10.384;2023-09-18T08:41:51;21.40;99.90
16801;DHT22;8518;53.236;10.384;2023-09-18T08:44:22;21.70;99.90
16801;DHT22;8518;53.236;10.384;2023-09-18T08:50:15;21.90;99.90
16801;DHT22;8518;53.236;10.384;2023-09-18T08:52:43;21.70;99.90
16801;DHT22;8518;53.236;10.384;2023-09-18T08:55:09;21.60;99.90
16801;DHT22;8518;53.236;10.384;2023-09-18T09:00:56;21.20;99.90
16801;DHT22;8518;53.236;10.384;2023-09-18T09:03:23;20.90;99.90
16801;DHT22;8518;53.236;10.384;2023-09-18T09:05:50;20.90;99.90
16801;DHT22;8518;53.236;10.384;2023-09-18T09:08:15;20.90;99.90
16801;DHT22;8518;53.236;10.384;2023-09-18T09:10:44;21.10;99.90
16801;DHT22;8518;53.236;10.384;2023-09-18T09:13:09;20.90;99.90
16801;DHT22;8518;53.236;10.384;2023-09-18T09:15:46;21.00;99.90
16801;DHT22;8518;53.236;10.384;2023-09-18T09:18:12;21.10;99.90
16801;DHT22;8518;53.236;10.384;2023-09-18T09:20:40;21.50;99.90
16801;DHT22;8518;53.236;10.384;2023-09-18T09:23:09;22.00;99.90
16801;DHT22;8518;53.236;10.384;2023-09-18T09:25:35;24.00;99.90
16801;DHT22;8518;53.236;10.384;2023-09-18T09:31:28;24.30;99.90
16801;DHT22;8518;53.236;10.384;2023-09-18T09:33:54;24.20;99.90
16801;DHT22;8518;53.236;10.384;2023-09-18T09:36:24;24.10;99.90
16801;DHT22;8518;53.236;10.384;2023-09-18T09:38:59;24.40;99.90
16801;DHT22;8518;53.236;10.384;2023-09-18T09:41:28;25.20;99.90
16801;DHT22;8518;53.236;10.384;2023-09-18T09:43:54;26.00;99.90
16801;DHT22;8518;53.236;10.384;2023-09-18T09:49:46;26.10;99.90
16801;DHT22;8518;53.236;10.384;2023-09-18T09:55:34;25.80;99.90
16801;DHT22;8518;53.236;10.384;2023-09-18T10:01:22;23.60;99.90
16801;DHT22;8518;53.236;10.384;2023-09-18T10:07:14;24.70;99.90
16801;DHT22;8518;53.236;10.384;2023-09-18T10:09:45;23.50;99.90
16801;DHT22;8518;53.236;10.384;2023-09-18T10:12:15;24.10;99.90
16801;DHT22;8518;53.236;10.384;2023-09-18T10:14:47;23.90;99.90
16801;DHT22;8518;53.236;10.384;2023-09-18T10:20:39;23.70;99.90
16801;DHT22;8518;53.236;10.384;2023-09-18T10:23:15;23.60;99.90
16801;DHT22;8518;53.236;10.384;2023-09-18T10:25:55;23.60;99.90
16801;DHT22;8518;53.236;10.384;2023-09-18T10:28:24;23.60;99.90
16801;DHT22;8518;53.236;10.384;2023-09-18T10:30:56;23.60;99.90
16801;DHT22;8518;53.236;10.384;2023-09-18T10:33:29;23.60;99.90
16801;DHT22;8518;53.236;10.384;2023-09-18T10:35:59;23.50;99.90
16801;DHT22;8518;53.236;10.384;2023-09-18T10:38:30;23.40;99.90
16801;DHT22;8518;53.236;10.384;2023-09-18T10:40:57;23.40;99.90
16801;DHT22;8518;53.236;10.384;2023-09-18T10:43:26;23.40;99.90
16801;DHT22;8518;53.236;10.384;2023-09-18T10:45:52;23.50;99.90
16801;DHT22;8518;53.236;10.384;2023-09-18T10:48:22;23.50;99.90
16801;DHT22;8518;53.236;10.384;2023-09-18T10:50:51;23.70;99.90
16801;DHT22;8518;53.236;10.384;2023-09-18T10:53:18;23.90;99.90
16801;DHT22;8518;53.236;10.384;2023-09-18T10:55:45;24.10;99.90
16801;DHT22;8518;53.236;10.384;2023-09-18T10:58:12;24.20;99.90
16801;DHT22;8518;53.236;10.384;2023-09-18T11:00:50;24.40;99.90
16801;DHT22;8518;53.236;10.384;2023-09-18T11:03:17;24.60;99.90
16801;DHT22;8518;53.236;10.384;2023-09-18T11:06:01;24.80;99.90
16801;DHT22;8518;53.236;10.384;2023-09-18T11:08:47;24.80;99.90
16801;DHT22;8518;53.236;10.384;2023-09-18T11:11:15;24.90;99.90
16801;DHT22;8518;53.236;10.384;2023-09-18T11:13:52;25.20;99.90
16801;DHT22;8518;53.236;10.384;2023-09-18T11:19:44;25.40;99.90
16801;DHT22;8518;53.236;10.384;2023-09-18T11:25:42;24.70;99.90
16801;DHT22;8518;53.236;10.384;2023-09-18T11:31:52;24.70;99.90
16801;DHT22;8518;53.236;10.384;2023-09-18T11:34:28;24.80;99.90
16801;DHT22;8518;53.236;10.384;2023-09-18T11:36:57;25.00;99.90
16801;DHT22;8518;53.236;10.384;2023-09-18T11:39:40;25.30;99.90
16801;DHT22;8518;53.236;10.384;2023-09-18T11:42:11;25.40;99.90
16801;DHT22;8518;53.236;10.384;2023-09-18T11:44:40;25.30;99.90
16801;DHT22;8518;53.236;10.384;2023-09-18T11:50:38;24.90;99.90
16801;DHT22;8518;53.236;10.384;2023-09-18T11:56:30;24.60;99.90
16801;DHT22;8518;53.236;10.384;2023-09-18T11:58:56;24.30;99.90
16801;DHT22;8518;53.236;10.384;2023-09-18T12:01:22;24.10;99.90
16801;DHT22;8518;53.236;10.384;2023-09-18T12:04:05;24.00;99.90
16801;DHT22;8518;53.236;10.384;2023-09-18T12:09:56;23.90;99.90
16801;DHT22;8518;53.236;10.384;2023-09-18T12:15:44;24.50;99.90
16801;DHT22;8518;53.236;10.384;2023-09-18T12:18:17;24.50;99.90
16801;DHT22;8518;53.236;10.384;2023-09-18T12:20:47;24.40;99.90
16801;DHT22;8518;53.236;10.384;2023-09-18T12:23:14;24.50;99.90
16801;DHT22;8518;53.236;10.384;2023-09-18T12:25:40;24.70;99.90
16801;DHT22;8518;53.236;10.384;2023-09-18T12:31:29;26.60;99.90
16801;DHT22;8518;53.236;10.384;2023-09-18T12:33:56;28.40;99.90
16801;DHT22;8518;53.236;10.384;2023-09-18T12:36:23;29.20;99.90
16801;DHT22;8518;53.236;10.384;2023-09-18T12:38:59;29.80;99.90
16801;DHT22;8518;53.236;10.384;2023-09-18T12:41:26;29.70;99.90
16801;DHT22;8518;53.236;10.384;2023-09-18T12:43:53;29.10;99.90
16801;DHT22;8518;53.236;10.384;2023-09-18T12:49:42;27.10;99.90
16801;DHT22;8518;53.236;10.384;2023-09-18T12:52:07;25.40;99.90
16801;DHT22;8518;53.236;10.384;2023-09-18T12:54:44;26.10;99.90
16801;DHT22;8518;53.236;10.384;2023-09-18T13:00:34;26.50;99.90
16801;DHT22;8518;53.236;10.384;2023-09-18T13:03:01;26.60;99.90
16801;DHT22;8518;53.236;10.384;2023-09-18T13:05:30;26.40;99.90
16801;DHT22;8518;53.236;10.384;2023-09-18T13:11:20;26.30;99.90
16801;DHT22;8518;53.236;10.384;2023-09-18T13:13:56;27.00;99.90
16801;DHT22;8518;53.236;10.384;2023-09-18T13:19:52;27.60;99.90
16801;DHT22;8518;53.236;10.384;2023-09-18T13:22:28;28.20;99.90
16801;DHT22;8518;53.236;10.384;2023-09-18T13:24:59;28.00;99.90
16801;DHT22;8518;53.236;10.384;2023-09-18T13:30:47;26.80;99.90
16801;DHT22;8518;53.236;10.384;2023-09-18T13:33:16;25.60;99.90
16801;DHT22;8518;53.236;10.384;2023-09-18T13:35:47;25.70;99.90
16801;DHT22;8518;53.236;10.384;2023-09-18T13:38:16;24.80;99.90
16801;DHT22;8518;53.236;10.384;2023-09-18T13:40:42;24.50;99.90
16801;DHT22;8518;53.236;10.384;2023-09-18T13:43:10;24.50;99.90
16801;DHT22;8518;53.236;10.384;2023-09-18T13:45:36;24.50;99.90
16801;DHT22;8518;53.236;10.384;2023-09-18T13:51:29;24.40;99.90
16801;DHT22;8518;53.236;10.384;2023-09-18T13:53:55;24.30;99.90
16801;DHT22;8518;53.236;10.384;2023-09-18T13:59:45;23.90;99.90
16801;DHT22;8518;53.236;10.384;2023-09-18T14:02:20;23.80;99.90
16801;DHT22;8518;53.236;10.384;2023-09-18T14:04:45;23.70;99.90
16801;DHT22;8518;53.236;10.384;2023-09-18T14:10:33;23.70;99.90
16801;DHT22;8518;53.236;10.384;2023-09-18T14:13:01;23.70;99.90
16801;DHT22;8518;53.236;10.384;2023-09-18T14:15:28;23.70;99.90
16801;DHT22;8518;53.236;10.384;2023-09-18T14:21:19;23.50;99.90
16801;DHT22;8518;53.236;10.384;2023-09-18T14:23:45;23.50;99.90
16801;DHT22;8518;53.236;10.384;2023-09-18T14:29:38;23.30;99.90
16801;DHT22;8518;53.236;10.384;2023-09-18T14:35:27;23.30;99.90
16801;DHT22;8518;53.236;10.384;2023-09-18T14:37:57;23.30;99.90
16801;DHT22;8518;53.236;10.384;2023-09-18T14:40:26;23.30;99.90
16801;DHT22;8518;53.236;10.384;2023-09-18T14:42:51;23.30;99.90
16801;DHT22;8518;53.236;10.384;2023-09-18T14:45:18;23.40;99.90
16801;DHT22;8518;53.236;10.384;2023-09-18T14:51:06;23.50;99.90
16801;DHT22;8518;53.236;10.384;2023-09-18T14:56:54;23.50;99.90
16801;DHT22;8518;53.236;10.384;2023-09-18T14:59:20;23.30;99.90
16801;DHT22;8518;53.236;10.384;2023-09-18T15:01:48;23.30;99.90
16801;DHT22;8518;53.236;10.384;2023-09-18T15:04:14;23.30;99.90
16801;DHT22;8518;53.236;10.384;2023-09-18T15:10:05;23.30;99.90
16801;DHT22;8518;53.236;10.384;2023-09-18T15:12:33;23.20;99.90
16801;DHT22;8518;53.236;10.384;2023-09-18T15:14:59;23.20;99.90
16801;DHT22;8518;53.236;10.384;2023-09-18T15:20:52;23.20;99.90
16801;DHT22;8518;53.236;10.384;2023-09-18T15:26:41;23.10;99.90
16801;DHT22;8518;53.236;10.384;2023-09-18T15:29:10;23.00;99.90
16801;DHT22;8518;53.236;10.384;2023-09-18T15:31:36;22.80;99.90
16801;DHT22;8518;53.236;10.384;2023-09-18T15:34:02;22.80;99.90
16801;DHT22;8518;53.236;10.384;2023-09-18T15:36:28;22.70;99.90
16801;DHT22;8518;53.236;10.384;2023-09-18T15:38:54;22.70;99.90
16801;DHT22;8518;53.236;10.384;2023-09-18T15:41:25;23.20;99.90
16801;DHT22;8518;53.236;10.384;2023-09-18T15:43:50;22.70;99.90
16801;DHT22;8518;53.236;10.384;2023-09-18T15:49:38;22.60;99.90
16801;DHT22;8518;53.236;10.384;2023-09-18T15:52:09;22.60;99.90
16801;DHT22;8518;53.236;10.384;2023-09-18T15:54:35;22.60;99.90
16801;DHT22;8518;53.236;10.384;2023-09-18T16:00:30;22.60;99.90
16801;DHT22;8518;53.236;10.384;2023-09-18T16:03:16;22.70;99.90
16801;DHT22;8518;53.236;10.384;2023-09-18T16:05:41;22.60;99.90
16801;DHT22;8518;53.236;10.384;2023-09-18T16:11:29;22.60;99.90
16801;DHT22;8518;53.236;10.384;2023-09-18T16:13:55;22.60;99.90
16801;DHT22;8518;53.236;10.384;2023-09-18T16:19:51;22.60;99.90
16801;DHT22;8518;53.236;10.384;2023-09-18T16:22:19;22.70;99.90
16801;DHT22;8518;53.236;10.384;2023-09-18T16:24:55;22.70;99.90
16801;DHT22;8518;53.236;10.384;2023-09-18T16:30:47;22.70;99.90
16801;DHT22;8518;53.236;10.384;2023-09-18T16:36:35;22.80;99.90
16801;DHT22;8518;53.236;10.384;2023-09-18T16:39:01;22.70;99.90
16801;DHT22;8518;53.236;10.384;2023-09-18T16:41:27;22.50;99.90
16801;DHT22;8518;53.236;10.384;2023-09-18T16:43:53;22.40;99.90
16801;DHT22;8518;53.236;10.384;2023-09-18T16:49:41;22.20;99.90
16801;DHT22;8518;53.236;10.384;2023-09-18T16:52:07;22.20;99.90
16801;DHT22;8518;53.236;10.384;2023-09-18T16:54:33;22.10;99.90
16801;DHT22;8518;53.236;10.384;2023-09-18T17:00:30;22.10;99.90
16801;DHT22;8518;53.236;10.384;2023-09-18T17:02:56;22.00;99.90
16801;DHT22;8518;53.236;10.384;2023-09-18T17:05:22;21.90;99.90
16801;DHT22;8518;53.236;10.384;2023-09-18T17:11:13;21.90;99.90
16801;DHT22;8518;53.236;10.384;2023-09-18T17:13:39;21.80;99.90
16801;DHT22;8518;53.236;10.384;2023-09-18T17:16:04;21.70;99.90
16801;DHT22;8518;53.236;10.384;2023-09-18T17:18:34;21.70;99.90
16801;DHT22;8518;53.236;10.384;2023-09-18T17:21:03;21.70;99.90
16801;DHT22;8518;53.236;10.384;2023-09-18T17:23:32;21.70;99.90
16801;DHT22;8518;53.236;10.384;2023-09-18T17:26:00;21.70;99.90
16801;DHT22;8518;53.236;10.384;2023-09-18T17:28:26;21.60;99.90
16801;DHT22;8518;53.236;10.384;2023-09-18T17:30:52;21.50;99.90
16801;DHT22;8518;53.236;10.384;2023-09-18T17:33:20;21.60;99.90
16801;DHT22;8518;53.236;10.384;2023-09-18T17:35:46;21.60;99.90
16801;DHT22;8518;53.236;10.384;2023-09-18T17:38:16;21.50;99.90
16801;DHT22;8518;53.236;10.384;2023-09-18T17:41:02;21.50;99.90
16801;DHT22;8518;53.236;10.384;2023-09-18T17:43:44;21.50;99.90
16801;DHT22;8518;53.236;10.384;2023-09-18T17:49:32;21.40;99.90
16801;DHT22;8518;53.236;10.384;2023-09-18T17:52:01;21.30;99.90
16801;DHT22;8518;53.236;10.384;2023-09-18T17:54:31;21.80;99.90
16801;DHT22;8518;53.236;10.384;2023-09-18T18:00:19;21.10;99.90
16801;DHT22;8518;53.236;10.384;2023-09-18T18:03:06;21.20;99.90
16801;DHT22;8518;53.236;10.384;2023-09-18T18:06:12;21.10;99.90
16801;DHT22;8518;53.236;10.384;2023-09-18T18:08:39;21.00;99.90
16801;DHT22;8518;53.236;10.384;2023-09-18T18:11:05;21.00;99.90
16801;DHT22;8518;53.236;10.384;2023-09-18T18:13:31;21.10;99.90
16801;DHT22;8518;53.236;10.384;2023-09-18T18:15:59;21.00;99.90
16801;DHT22;8518;53.236;10.384;2023-09-18T18:18:29;20.90;99.90
16801;DHT22;8518;53.236;10.384;2023-09-18T18:21:18;20.90;99.90
16801;DHT22;8518;53.236;10.384;2023-09-18T18:23:44;21.00;99.90
16801;DHT22;8518;53.236;10.384;2023-09-18T18:26:10;20.80;99.90
16801;DHT22;8518;53.236;10.384;2023-09-18T18:28:36;20.80;99.90
16801;DHT22;8518;53.236;10.384;2023-09-18T18:31:03;20.80;99.90
16801;DHT22;8518;53.236;10.384;2023-09-18T18:33:29;20.80;99.90
16801;DHT22;8518;53.236;10.384;2023-09-18T18:35:54;20.70;99.90
16801;DHT22;8518;53.236;10.384;2023-09-18T18:38:20;20.70;99.90
16801;DHT22;8518;53.236;10.384;2023-09-18T18:40:57;20.70;99.90
16801;DHT22;8518;53.236;10.384;2023-09-18T18:43:24;20.70;99.90
16801;DHT22;8518;53.236;10.384;2023-09-18T18:46:08;20.60;99.90
16801;DHT22;8518;53.236;10.384;2023-09-18T18:48:36;20.60;99.90
16801;DHT22;8518;53.236;10.384;2023-09-18T18:51:12;20.60;99.90
16801;DHT22;8518;53.236;10.384;2023-09-18T18:53:38;20.60;99.90
16801;DHT22;8518;53.236;10.384;2023-09-18T18:56:08;20.50;99.90
16801;DHT22;8518;53.236;10.384;2023-09-18T18:58:38;20.50;99.90
16801;DHT22;8518;53.236;10.384;2023-09-18T19:01:19;20.50;99.90
16801;DHT22;8518;53.236;10.384;2023-09-18T19:03:49;20.40;99.90
16801;DHT22;8518;53.236;10.384;2023-09-18T19:09:37;20.30;99.90
16801;DHT22;8518;53.236;10.384;2023-09-18T19:12:12;20.30;99.90
16801;DHT22;8518;53.236;10.384;2023-09-18T19:14:37;20.20;99.90
16801;DHT22;8518;53.236;10.384;2023-09-18T19:20:25;20.20;99.90
16801;DHT22;8518;53.236;10.384;2023-09-18T19:22:54;20.10;99.90
16801;DHT22;8518;53.236;10.384;2023-09-18T19:28:45;20.00;99.90
16801;DHT22;8518;53.236;10.384;2023-09-18T19:31:38;20.00;99.90
16801;DHT22;8518;53.236;10.384;2023-09-18T19:46:48;19.90;99.90
16801;DHT22;8518;53.236;10.384;2023-09-18T19:49:22;19.90;99.90
16801;DHT22;8518;53.236;10.384;2023-09-18T19:51:50;19.80;99.90
16801;DHT22;8518;53.236;10.384;2023-09-18T19:54:19;19.80;99.90
16801;DHT22;8518;53.236;10.384;2023-09-18T20:00:12;19.80;99.90
16801;DHT22;8518;53.236;10.384;2023-09-18T20:02:38;19.80;99.90
16801;DHT22;8518;53.236;10.384;2023-09-18T20:05:08;19.80;99.90
16801;DHT22;8518;53.236;10.384;2023-09-18T20:10:56;19.70;99.90
16801;DHT22;8518;53.236;10.384;2023-09-18T20:13:24;19.80;99.90
16801;DHT22;8518;53.236;10.384;2023-09-18T20:15:51;19.70;99.90
16801;DHT22;8518;53.236;10.384;2023-09-18T20:18:17;19.80;99.90
16801;DHT22;8518;53.236;10.384;2023-09-18T20:20:43;19.70;99.90
16801;DHT22;8518;53.236;10.384;2023-09-18T20:23:11;19.90;99.90
16801;DHT22;8518;53.236;10.384;2023-09-18T20:25:37;19.80;99.90
16801;DHT22;8518;53.236;10.384;2023-09-18T20:31:27;20.70;99.90
16801;DHT22;8518;53.236;10.384;2023-09-18T20:34:01;19.80;99.90
16801;DHT22;8518;53.236;10.384;2023-09-18T20:40:14;19.70;99.90
16801;DHT22;8518;53.236;10.384;2023-09-18T20:42:40;19.70;99.90
16801;DHT22;8518;53.236;10.384;2023-09-18T20:45:06;19.70;99.90
16801;DHT22;8518;53.236;10.384;2023-09-18T20:50:54;19.70;99.90
16801;DHT22;8518;53.236;10.384;2023-09-18T20:56:42;19.90;99.90